Time;durP1;ratioP1;P1;durP2;ratioP2;P2;SDS_P1;SDS_P2;PMS_P1;PMS_P2;Temp;Humidity;BMP_temperature;BMP_pressure;BME280_temperature;BME280_humidity;BME280_pressure;Samples;Min_cycle;Max_cycle;Signal;HPM_P1;HPM_P2
2021/09/15 00:01:45;;;;;;;37.00;33.42;;;17.80;99.90;;;;;;5068474;28;20190;-47
2021/09/15 00:04:11;;;;;;;30.52;27.90;;;17.80;99.90;;;;;;5052324;28;20068;-47
2021/09/15 00:06:37;;;;;;;33.38;30.48;;;17.80;99.90;;;;;;5066210;28;20110;-48
2021/09/15 00:09:03;;;;;;;34.67;31.58;;;17.80;99.90;;;;;;5076450;28;20470;-47
2021/09/15 00:11:29;;;;;;;34.63;31.50;;;17.80;99.90;;;;;;5067029;28;20049;-45
2021/09/15 00:13:55;;;;;;;36.78;33.08;;;17.80;99.90;;;;;;5066795;28;20049;-49
2021/09/15 00:16:21;;;;;;;34.65;31.48;;;17.80;99.90;;;;;;5068074;28;20135;-47
2021/09/15 00:18:47;;;;;;;33.95;31.10;;;17.80;99.90;;;;;;5079574;28;20094;-47
2021/09/15 00:21:13;;;;;;;33.92;30.85;;;17.80;99.90;;;;;;5066647;28;20080;-45
2021/09/15 00:23:39;;;;;;;35.15;32.15;;;17.80;99.90;;;;;;5049633;28;20060;-47
2021/09/15 00:26:05;;;;;;;34.35;31.25;;;17.80;99.90;;;;;;5071714;28;20389;-46
2021/09/15 00:28:31;;;;;;;36.47;33.35;;;17.80;99.90;;;;;;5071415;28;20052;-46
2021/09/15 00:30:57;;;;;;;38.15;34.75;;;17.70;99.90;;;;;;5067914;28;20049;-48
2021/09/15 00:33:23;;;;;;;38.25;34.60;;;17.70;99.90;;;;;;5070993;28;20048;-46
2021/09/15 00:35:51;;;;;;;34.63;31.30;;;17.70;99.90;;;;;;5070365;28;20455;-46
2021/09/15 00:38:17;;;;;;;37.53;34.22;;;17.60;99.90;;;;;;5062883;28;20086;-47
2021/09/15 00:40:43;;;;;;;36.63;33.30;;;17.70;99.90;;;;;;5071227;28;20512;-46
2021/09/15 00:43:09;;;;;;;38.00;34.70;;;17.60;99.90;;;;;;5068717;28;20139;-50
2021/09/15 00:45:36;;;;;;;35.58;32.42;;;17.60;99.90;;;;;;5071344;28;20052;-46
2021/09/15 00:48:02;;;;;;;37.30;34.00;;;17.50;99.90;;;;;;5052538;28;20094;-47
2021/09/15 00:50:28;;;;;;;35.65;32.45;;;17.50;99.90;;;;;;5051228;28;20139;-46
2021/09/15 00:52:57;;;;;;;40.80;36.90;;;17.40;99.90;;;;;;5064936;28;20056;-46
2021/09/15 00:55:23;;;;;;;38.60;35.03;;;17.50;99.90;;;;;;5053400;28;20064;-46
2021/09/15 00:57:49;;;;;;;42.90;38.85;;;17.40;99.90;;;;;;5056845;28;20083;-46
2021/09/15 01:00:17;;;;;;;41.72;37.88;;;17.40;99.90;;;;;;5068230;28;20045;-46
2021/09/15 01:02:43;;;;;;;40.40;36.60;;;17.40;99.90;;;;;;5067321;28;20127;-49
2021/09/15 01:05:11;;;;;;;39.17;35.63;;;17.40;99.90;;;;;;5064728;28;20060;-47
2021/09/15 01:07:38;;;;;;;44.90;40.47;;;17.30;99.90;;;;;;5066738;28;20466;-47
2021/09/15 01:10:06;;;;;;;43.22;39.17;;;17.30;99.90;;;;;;5078704;28;20055;-48
2021/09/15 01:12:38;;;;;;;45.55;41.25;;;17.30;99.90;;;;;;5044333;28;20505;-46
2021/09/15 01:15:27;;;;;;;44.13;39.67;;;17.30;99.90;;;;;;5028012;28;20120;-46
2021/09/15 01:18:20;;;;;;;47.70;43.22;;;17.30;99.90;;;;;;5021163;28;20060;-45
2021/09/15 01:21:09;;;;;;;46.70;42.20;;;17.30;99.90;;;;;;5048663;28;20049;-46
2021/09/15 01:23:55;;;;;;;48.88;44.08;;;17.20;99.90;;;;;;5044439;28;20070;-46
2021/09/15 01:26:40;;;;;;;46.85;42.30;;;17.20;99.90;;;;;;5041115;28;20061;-50
2021/09/15 01:29:32;;;;;;;47.78;42.83;;;17.30;99.90;;;;;;5047220;28;20091;-45
2021/09/15 01:32:11;;;;;;;49.75;44.80;;;17.20;99.90;;;;;;5047147;28;20065;-49
2021/09/15 01:34:40;;;;;;;48.47;43.85;;;17.20;99.90;;;;;;5059808;28;20144;-48
2021/09/15 01:37:13;;;;;;;46.40;42.00;;;17.20;99.90;;;;;;5041673;28;20053;-47
2021/09/15 01:39:51;;;;;;;47.75;43.03;;;17.20;99.90;;;;;;5020444;28;20557;-49
2021/09/15 01:42:17;;;;;;;50.28;45.30;;;17.20;99.90;;;;;;5025415;28;20062;-47
2021/09/15 01:44:46;;;;;;;51.97;46.53;;;17.20;99.90;;;;;;5030146;28;20064;-47
2021/09/15 01:47:17;;;;;;;49.08;44.20;;;17.20;99.90;;;;;;5028182;28;20179;-49
2021/09/15 01:49:45;;;;;;;51.17;46.07;;;17.20;99.90;;;;;;5046896;28;20148;-46
2021/09/15 01:52:14;;;;;;;51.25;46.13;;;17.20;99.90;;;;;;5034506;28;20080;-47
2021/09/15 01:54:40;;;;;;;54.35;48.90;;;17.20;99.90;;;;;;5062030;28;20056;-48
2021/09/15 01:57:07;;;;;;;55.42;50.10;;;17.20;99.90;;;;;;5065640;28;20052;-48
2021/09/15 01:59:51;;;;;;;54.95;49.17;;;17.20;99.90;;;;;;5060803;28;20556;-50
2021/09/15 02:02:36;;;;;;;46.97;42.30;;;17.20;99.90;;;;;;5069132;28;20453;-48
2021/09/15 02:05:09;;;;;;;54.92;49.58;;;17.20;99.90;;;;;;5061004;28;20056;-47
2021/09/15 02:07:48;;;;;;;55.10;49.53;;;17.20;99.90;;;;;;5056493;28;20054;-52
2021/09/15 02:10:36;;;;;;;53.25;47.80;;;17.30;99.90;;;;;;5054471;28;20061;-47
2021/09/15 02:13:04;;;;;;;55.00;49.53;;;17.40;99.90;;;;;;5067957;28;20127;-47
2021/09/15 02:15:33;;;;;;;55.65;50.08;;;17.40;99.90;;;;;;5056003;28;20123;-49
2021/09/15 02:17:59;;;;;;;58.55;52.33;;;17.40;99.90;;;;;;5060700;28;20088;-50
2021/09/15 02:20:44;;;;;;;55.05;49.63;;;17.50;99.90;;;;;;5066586;28;20524;-48
2021/09/15 02:23:27;;;;;;;57.70;51.70;;;17.50;99.90;;;;;;5066868;28;20113;-47
2021/09/15 02:26:24;;;;;;;53.92;48.50;;;17.60;99.90;;;;;;5060932;28;20389;-48
2021/09/15 02:28:54;;;;;;;54.83;49.42;;;17.60;99.90;;;;;;5099443;27;20147;-45
2021/09/15 02:31:31;;;;;;;55.53;49.92;;;17.70;99.90;;;;;;5051135;28;20460;-49
2021/09/15 02:34:16;;;;;;;57.22;51.58;;;17.80;99.90;;;;;;5069057;28;20056;-47
2021/09/15 02:37:00;;;;;;;56.33;50.28;;;17.80;99.90;;;;;;5063920;28;20521;-46
2021/09/15 02:39:44;;;;;;;54.60;49.30;;;17.80;99.90;;;;;;5079625;28;20129;-48
2021/09/15 02:42:36;;;;;;;55.08;49.30;;;17.80;99.90;;;;;;5053303;28;20394;-48
2021/09/15 02:45:10;;;;;;;56.45;50.33;;;17.80;99.90;;;;;;5071397;28;20045;-46
2021/09/15 02:47:46;;;;;;;56.55;48.78;;;17.80;99.90;;;;;;5074174;28;20151;-46
2021/09/15 02:50:32;;;;;;;49.03;44.05;;;17.80;99.90;;;;;;5100977;28;20127;-47
2021/09/15 02:53:22;;;;;;;50.25;45.28;;;17.80;99.90;;;;;;5047490;28;20057;-46
2021/09/15 02:56:03;;;;;;;47.53;42.83;;;17.70;99.90;;;;;;5054410;28;20088;-48
2021/09/15 02:58:55;;;;;;;46.97;42.47;;;17.60;99.90;;;;;;5072734;28;20048;-48
2021/09/15 03:01:47;;;;;;;;;;;17.50;99.90;;;;;;5041836;28;20591;-46
2021/09/15 03:04:23;;;;;;;48.83;44.03;;;17.40;99.90;;;;;;5049052;28;20293;-47
2021/09/15 03:07:04;;;;;;;49.15;44.03;;;17.30;99.90;;;;;;5085523;28;20779;-46
2021/09/15 03:09:34;;;;;;;47.83;43.13;;;17.30;99.90;;;;;;5069804;28;20052;-46
2021/09/15 03:12:00;;;;;;;50.25;44.95;;;17.30;99.90;;;;;;5066897;28;20080;-47
2021/09/15 03:14:27;;;;;;;52.28;47.05;;;17.20;99.90;;;;;;5068361;28;20707;-46
2021/09/15 03:16:54;;;;;;;53.85;48.13;;;17.20;99.90;;;;;;5067672;28;20083;-51
2021/09/15 03:19:21;;;;;;;49.70;44.42;;;17.20;99.90;;;;;;5059835;28;20132;-46
2021/09/15 03:21:48;;;;;;;50.85;45.40;;;17.10;99.90;;;;;;5106189;27;20071;-46
2021/09/15 03:24:14;;;;;;;53.50;47.85;;;17.00;99.90;;;;;;5053457;28;20186;-47
2021/09/15 03:26:45;;;;;;;55.35;49.50;;;17.00;99.90;;;;;;5063934;28;20053;-48
2021/09/15 03:29:12;;;;;;;53.33;47.67;;;17.00;99.90;;;;;;5089756;28;20059;-48
2021/09/15 03:31:39;;;;;;;51.17;45.85;;;17.00;99.90;;;;;;5066499;28;20060;-47
2021/09/15 03:34:08;;;;;;;54.65;48.67;;;16.90;99.90;;;;;;5066632;28;20067;-48
2021/09/15 03:36:34;;;;;;;53.60;48.15;;;16.90;99.90;;;;;;5059518;28;20401;-48
2021/09/15 03:39:01;;;;;;;53.13;47.45;;;16.80;99.90;;;;;;5067849;28;20128;-48
2021/09/15 03:41:27;;;;;;;48.78;43.88;;;16.80;99.90;;;;;;5050906;28;20405;-47
2021/09/15 03:43:54;;;;;;;49.63;44.42;;;16.80;99.90;;;;;;5066994;28;20045;-48
2021/09/15 03:46:20;;;;;;;52.97;47.28;;;16.80;99.90;;;;;;5080436;28;20051;-48
2021/09/15 03:48:46;;;;;;;53.85;47.15;;;16.70;99.90;;;;;;5086729;28;20510;-46
2021/09/15 03:51:13;;;;;;;54.03;48.08;;;16.60;99.90;;;;;;5076615;28;20067;-48
2021/09/15 03:53:39;;;;;;;58.08;50.15;;;16.60;99.90;;;;;;5072151;28;20131;-48
2021/09/15 03:56:05;;;;;;;51.28;45.67;;;16.60;99.90;;;;;;5071723;28;20233;-46
2021/09/15 03:58:31;;;;;;;61.60;51.10;;;16.50;99.90;;;;;;5051409;28;20033;-46
2021/09/15 04:00:57;;;;;;;57.92;46.55;;;16.50;99.90;;;;;;5052302;28;20409;-48
2021/09/15 04:03:23;;;;;;;57.08;51.08;;;16.50;99.90;;;;;;5063466;28;20055;-47
2021/09/15 04:05:49;;;;;;;66.00;54.58;;;16.50;99.90;;;;;;5066475;28;20064;-48
2021/09/15 04:08:17;;;;;;;54.97;48.53;;;16.50;99.90;;;;;;5064301;28;20496;-47
2021/09/15 04:10:43;;;;;;;58.60;51.35;;;16.50;99.90;;;;;;5093371;27;20504;-47
2021/09/15 04:13:11;;;;;;;61.72;53.50;;;16.50;99.90;;;;;;5072712;28;20052;-46
2021/09/15 04:15:38;;;;;;;59.63;52.95;;;16.40;99.90;;;;;;5059584;28;20055;-47
2021/09/15 04:18:04;;;;;;;56.67;50.58;;;16.40;99.90;;;;;;5057692;28;20070;-48
2021/09/15 04:20:30;;;;;;;60.28;49.45;;;16.50;99.90;;;;;;5061091;28;20049;-46
2021/09/15 04:22:56;;;;;;;52.80;47.35;;;16.40;99.90;;;;;;5077428;28;20114;-46
2021/09/15 04:33:40;;;;;;;53.63;47.95;;;16.30;99.90;;;;;;5065763;28;20060;-46
2021/09/15 04:36:06;;;;;;;55.90;48.35;;;16.30;99.90;;;;;;5076434;28;20126;-47
2021/09/15 04:38:32;;;;;;;52.15;46.83;;;16.30;99.90;;;;;;5063538;28;20052;-46
2021/09/15 04:40:59;;;;;;;47.92;42.92;;;16.30;99.90;;;;;;5054974;28;20049;-46
2021/09/15 04:43:26;;;;;;;51.20;45.63;;;16.30;99.90;;;;;;5062141;28;20044;-47
2021/09/15 04:45:52;;;;;;;51.08;45.38;;;16.20;99.90;;;;;;5062172;28;20052;-46
2021/09/15 04:48:19;;;;;;;50.25;44.85;;;16.20;99.90;;;;;;5075204;28;20091;-46
2021/09/15 04:50:46;;;;;;;48.47;43.40;;;16.20;99.90;;;;;;5049189;28;20497;-49
2021/09/15 04:53:12;;;;;;;44.67;39.95;;;16.10;99.90;;;;;;5059990;28;20069;-47
2021/09/15 04:55:38;;;;;;;67.53;52.03;;;16.10;99.90;;;;;;5060386;28;20044;-46
2021/09/15 04:58:04;;;;;;;54.92;47.80;;;16.10;99.90;;;;;;5058511;28;20052;-47
2021/09/15 05:00:32;;;;;;;51.40;46.17;;;16.20;99.90;;;;;;5060373;28;20161;-45
2021/09/15 05:03:02;;;;;;;61.65;51.53;;;16.10;99.90;;;;;;5062376;28;20056;-48
2021/09/15 05:05:34;;;;;;;47.72;42.50;;;16.20;99.90;;;;;;5078474;28;20052;-48
2021/09/15 05:08:01;;;;;;;60.05;51.13;;;16.10;99.90;;;;;;5057697;28;20055;-47
2021/09/15 05:10:28;;;;;;;52.58;46.88;;;16.10;99.90;;;;;;5079172;28;20080;-46
2021/09/15 05:12:56;;;;;;;50.20;44.10;;;16.10;99.90;;;;;;5060613;28;20783;-45
2021/09/15 05:15:28;;;;;;;58.83;50.10;;;16.10;99.90;;;;;;5057359;28;20070;-45
2021/09/15 05:17:58;;;;;;;49.47;44.38;;;16.10;99.90;;;;;;5064241;28;20644;-48
2021/09/15 05:20:27;;;;;;;56.80;47.40;;;16.20;99.90;;;;;;5059577;28;20063;-46
2021/09/15 05:22:54;;;;;;;49.55;44.38;;;16.20;99.90;;;;;;5052998;28;20758;-49
2021/09/15 05:25:22;;;;;;;52.08;45.90;;;16.30;99.90;;;;;;5053675;28;20048;-47
2021/09/15 05:27:49;;;;;;;49.45;44.17;;;16.30;99.90;;;;;;5060518;28;21771;-48
2021/09/15 05:30:16;;;;;;;50.65;45.50;;;16.30;99.90;;;;;;5039434;28;20102;-47
2021/09/15 05:32:49;;;;;;;61.88;51.65;;;16.30;99.90;;;;;;5068939;28;20127;-46
2021/09/15 05:35:15;;;;;;;56.22;50.25;;;16.40;99.90;;;;;;5042004;28;20101;-46
2021/09/15 05:37:45;;;;;;;54.50;47.70;;;16.40;99.90;;;;;;5053812;28;20133;-47
2021/09/15 05:40:13;;;;;;;63.65;53.63;;;16.30;99.90;;;;;;5058776;28;20095;-48
2021/09/15 05:42:44;;;;;;;;;;;16.40;99.90;;;;;;5062168;28;20052;-48
2021/09/15 05:45:13;;;;;;;53.00;46.58;;;16.50;99.90;;;;;;5073865;28;19925;-45
2021/09/15 05:47:41;;;;;;;53.50;47.45;;;16.50;99.90;;;;;;5073697;28;20052;-46
2021/09/15 05:50:10;;;;;;;59.53;53.05;;;16.60;99.90;;;;;;5061366;28;20505;-44
2021/09/15 05:52:42;;;;;;;51.63;45.65;;;16.60;99.90;;;;;;5057260;28;20060;-46
2021/09/15 05:55:09;;;;;;;71.18;56.05;;;16.70;99.90;;;;;;5059040;28;20068;-47
2021/09/15 05:57:35;;;;;;;74.95;58.47;;;16.70;99.90;;;;;;5061228;28;20062;-47
2021/09/15 06:00:03;;;;;;;65.53;58.42;;;16.80;99.90;;;;;;5059170;28;20044;-46
2021/09/15 06:02:41;;;;;;;76.03;67.82;;;16.80;99.90;;;;;;5058530;28;20140;-48
2021/09/15 06:05:27;;;;;;;71.22;62.10;;;16.90;99.90;;;;;;5054924;28;20049;-46
2021/09/15 06:07:53;;;;;;;60.50;53.92;;;16.90;99.90;;;;;;5051151;28;20066;-45
2021/09/15 06:10:19;;;;;;;61.58;53.70;;;17.00;99.90;;;;;;5064701;28;20048;-48
2021/09/15 06:12:45;;;;;;;71.82;64.65;;;17.10;99.90;;;;;;5061050;28;20394;-48
2021/09/15 06:15:11;;;;;;;57.85;51.03;;;17.10;99.90;;;;;;5059115;28;20156;-46
2021/09/15 06:17:44;;;;;;;61.53;53.90;;;17.20;99.90;;;;;;5059665;28;20119;-46
2021/09/15 06:20:10;;;;;;;68.90;56.63;;;17.30;99.90;;;;;;5060560;28;20056;-48
2021/09/15 06:22:56;;;;;;;76.28;57.20;;;17.30;99.90;;;;;;5061244;28;20136;-48
2021/09/15 06:25:48;;;;;;;72.07;62.85;;;17.30;99.90;;;;;;5062362;28;20054;-51
2021/09/15 06:28:14;;;;;;;79.82;59.90;;;17.30;99.90;;;;;;5061104;28;20052;-47
2021/09/15 06:30:43;;;;;;;71.60;63.42;;;17.40;99.90;;;;;;5061014;28;20055;-48
2021/09/15 06:33:09;;;;;;;66.07;55.10;;;17.40;99.90;;;;;;5060758;28;20059;-46
2021/09/15 06:35:35;;;;;;;61.88;52.30;;;17.50;99.90;;;;;;5060318;28;20615;-47
2021/09/15 06:38:02;;;;;;;78.75;57.50;;;17.50;99.90;;;;;;5093763;28;20512;-48
2021/09/15 06:40:28;;;;;;;70.15;62.92;;;17.60;99.90;;;;;;5060811;28;20072;-46
2021/09/15 06:42:54;;;;;;;79.47;60.53;;;17.60;99.90;;;;;;5063718;28;20076;-47
2021/09/15 06:45:21;;;;;;;68.47;56.25;;;17.70;99.90;;;;;;5059082;28;20098;-46
2021/09/15 06:47:47;;;;;;;77.78;69.57;;;17.80;99.90;;;;;;5049326;28;20076;-49
2021/09/15 06:50:14;;;;;;;68.25;56.58;;;17.80;99.90;;;;;;5048850;28;20157;-47
2021/09/15 06:52:40;;;;;;;71.15;60.45;;;17.90;99.90;;;;;;5057690;28;20052;-46
2021/09/15 06:55:08;;;;;;;73.90;56.88;;;18.00;99.90;;;;;;5056574;28;20067;-49
2021/09/15 06:57:36;;;;;;;69.57;56.60;;;18.10;99.90;;;;;;5059670;28;20067;-49
2021/09/15 07:00:05;;;;;;;73.72;57.63;;;18.10;99.90;;;;;;5052670;28;20079;-48
2021/09/15 07:02:31;;;;;;;75.30;57.58;;;18.20;99.90;;;;;;5053698;28;20075;-48
2021/09/15 07:04:58;;;;;;;73.45;56.67;;;18.20;99.90;;;;;;5054200;28;20045;-46
2021/09/15 07:07:24;;;;;;;69.45;55.45;;;18.30;99.90;;;;;;5060114;28;20151;-46
2021/09/15 07:09:53;;;;;;;75.53;58.00;;;18.20;99.90;;;;;;5055195;28;20079;-47
2021/09/15 07:12:22;;;;;;;72.57;57.47;;;18.30;99.90;;;;;;5052741;28;20056;-46
2021/09/15 07:14:51;;;;;;;82.05;60.70;;;18.30;99.90;;;;;;5062353;28;20052;-47
2021/09/15 07:17:17;;;;;;;69.70;60.88;;;18.30;99.90;;;;;;5054317;28;20126;-51
2021/09/15 07:19:43;;;;;;;76.15;56.35;;;18.40;99.90;;;;;;5058965;28;20451;-49
2021/09/15 07:22:12;;;;;;;74.45;58.90;;;18.40;99.90;;;;;;5061887;28;20049;-46
2021/09/15 07:24:39;;;;;;;78.68;57.63;;;18.40;99.90;;;;;;5058264;28;20041;-46
2021/09/15 07:27:06;;;;;;;123.55;111.07;;;18.50;99.90;;;;;;5056634;28;20053;-47
2021/09/15 07:29:32;;;;;;;69.38;56.38;;;18.50;99.90;;;;;;5059124;28;20539;-50
2021/09/15 07:31:58;;;;;;;72.07;58.30;;;18.60;99.90;;;;;;5054696;28;20076;-48
2021/09/15 07:34:24;;;;;;;104.35;93.05;;;18.60;99.90;;;;;;5058216;28;20055;-49
2021/09/15 07:36:54;;;;;;;79.13;65.43;;;18.60;99.90;;;;;;5053736;28;20060;-49
2021/09/15 07:39:20;;;;;;;75.88;57.55;;;18.70;99.90;;;;;;5057002;28;20854;-46
2021/09/15 07:41:47;;;;;;;64.20;54.85;;;18.70;99.90;;;;;;5053608;28;20052;-51
2021/09/15 07:44:13;;;;;;;76.10;62.10;;;18.70;99.90;;;;;;5056163;28;20594;-49
2021/09/15 07:46:39;;;;;;;68.95;58.53;;;18.70;99.90;;;;;;5086733;28;20044;-49
2021/09/15 07:49:06;;;;;;;70.97;58.78;;;18.80;99.90;;;;;;5059159;28;20131;-49
2021/09/15 07:51:32;;;;;;;62.05;54.42;;;18.80;99.90;;;;;;5057621;28;20063;-50
2021/09/15 07:53:59;;;;;;;72.93;57.42;;;18.90;99.90;;;;;;5057714;28;20040;-49
2021/09/15 07:56:25;;;;;;;59.15;49.42;;;18.90;99.90;;;;;;5053602;28;20504;-47
2021/09/15 07:58:51;;;;;;;59.22;52.78;;;18.90;99.90;;;;;;5058781;28;20519;-48
2021/09/15 08:01:17;;;;;;;60.92;54.03;;;18.90;99.90;;;;;;5052457;28;20037;-48
2021/09/15 08:03:43;;;;;;;63.22;53.75;;;18.90;99.90;;;;;;5055139;28;20077;-47
2021/09/15 08:06:11;;;;;;;63.75;55.85;;;19.00;99.90;;;;;;5056437;28;20954;-50
2021/09/15 08:08:38;;;;;;;65.63;53.70;;;19.10;99.90;;;;;;5051729;28;20053;-50
2021/09/15 08:11:04;;;;;;;67.55;58.97;;;19.10;99.90;;;;;;5054286;28;20045;-51
2021/09/15 08:13:30;;;;;;;62.63;53.42;;;19.10;99.90;;;;;;5057413;28;20127;-50
2021/09/15 08:15:56;;;;;;;62.97;55.85;;;19.20;99.90;;;;;;5051351;28;20053;-48
2021/09/15 08:18:22;;;;;;;64.10;53.70;;;19.20;99.90;;;;;;5048556;28;20107;-48
2021/09/15 08:20:48;;;;;;;74.53;65.95;;;19.20;99.90;;;;;;5058441;28;20123;-47
2021/09/15 08:23:17;;;;;;;63.20;51.97;;;19.30;99.90;;;;;;5053884;28;20508;-46
2021/09/15 08:25:44;;;;;;;58.30;51.03;;;19.40;99.90;;;;;;5089009;28;20434;-48
2021/09/15 08:28:10;;;;;;;61.28;52.30;;;19.40;99.90;;;;;;5057436;28;20110;-48
2021/09/15 08:30:37;;;;;;;60.85;51.92;;;19.50;99.90;;;;;;5054483;28;20134;-49
2021/09/15 08:33:03;;;;;;;65.00;57.83;;;19.60;99.90;;;;;;5054755;28;20049;-46
2021/09/15 08:35:30;;;;;;;66.10;53.83;;;19.60;99.90;;;;;;5057513;28;20051;-51
2021/09/15 08:37:57;;;;;;;69.07;60.63;;;19.70;99.90;;;;;;5051072;28;20060;-47
2021/09/15 08:40:24;;;;;;;55.35;49.33;;;19.70;99.90;;;;;;5062369;28;20053;-50
2021/09/15 08:42:50;;;;;;;55.25;48.78;;;19.70;99.90;;;;;;5060789;28;20084;-45
2021/09/15 08:45:16;;;;;;;56.67;50.30;;;19.80;99.90;;;;;;5066939;28;20122;-46
2021/09/15 08:47:47;;;;;;;55.88;48.75;;;19.80;99.90;;;;;;5068521;28;20152;-47
2021/09/15 08:50:14;;;;;;;;;;;19.80;99.90;;;;;;5070635;28;20434;-47
2021/09/15 08:52:43;;;;;;;49.30;44.10;;;19.80;99.90;;;;;;5069971;28;19924;-49
2021/09/15 08:55:12;;;;;;;51.78;46.13;;;19.80;99.90;;;;;;5070820;28;20059;-47
2021/09/15 08:57:39;;;;;;;52.00;46.47;;;19.80;99.90;;;;;;5066816;28;20052;-46
2021/09/15 09:00:08;;;;;;;52.30;46.60;;;19.80;99.90;;;;;;5069651;28;20063;-47
2021/09/15 09:02:37;;;;;;;52.55;46.90;;;19.80;99.90;;;;;;5067166;28;20048;-46
2021/09/15 09:05:05;;;;;;;48.90;43.60;;;19.90;99.90;;;;;;5067678;28;20483;-46
2021/09/15 09:07:35;;;;;;;44.92;40.47;;;19.90;99.90;;;;;;5069407;28;20062;-48
2021/09/15 09:10:08;;;;;;;46.42;41.70;;;20.00;99.90;;;;;;5068914;28;20075;-45
2021/09/15 09:12:37;;;;;;;45.88;41.17;;;20.20;99.90;;;;;;5069362;28;20136;-47
2021/09/15 09:15:23;;;;;;;48.83;43.83;;;20.30;99.90;;;;;;5068544;28;20049;-46
2021/09/15 09:18:00;;;;;;;44.30;39.85;;;20.40;99.90;;;;;;5067291;28;20053;-47
2021/09/15 09:20:32;;;;;;;45.08;40.47;;;20.50;99.90;;;;;;5068825;28;20065;-49
2021/09/15 09:23:10;;;;;;;43.42;38.97;;;20.60;99.90;;;;;;5067915;28;20056;-47
2021/09/15 09:25:52;;;;;;;46.05;41.58;;;20.50;99.90;;;;;;5069699;28;20171;-47
2021/09/15 09:28:29;;;;;;;44.38;39.97;;;20.60;99.90;;;;;;5068167;28;20048;-48
2021/09/15 09:31:22;;;;;;;45.80;41.30;;;20.60;99.90;;;;;;5048790;28;20057;-46
2021/09/15 09:34:05;;;;;;;42.30;38.30;;;20.60;99.90;;;;;;5064233;28;20147;-46
2021/09/15 09:36:31;;;;;;;45.13;40.60;;;20.50;99.90;;;;;;5069036;28;20054;-49
2021/09/15 09:38:57;;;;;;;42.67;38.50;;;20.50;99.90;;;;;;5066737;28;20052;-51
2021/09/15 09:41:23;;;;;;;41.03;36.92;;;20.50;99.90;;;;;;5068074;28;20049;-46
2021/09/15 09:43:55;;;;;;;42.75;38.40;;;20.50;99.90;;;;;;5067784;28;20885;-47
2021/09/15 09:46:34;;;;;;;41.88;37.88;;;20.40;99.90;;;;;;5066661;28;20083;-47
2021/09/15 09:49:06;;;;;;;39.22;35.40;;;20.30;99.90;;;;;;5065427;28;20076;-46
2021/09/15 09:51:38;;;;;;;38.13;34.65;;;20.30;99.90;;;;;;5050055;28;20083;-46
2021/09/15 09:54:27;;;;;;;39.58;35.47;;;20.30;99.90;;;;;;5067861;28;20052;-49
2021/09/15 09:56:58;;;;;;;36.00;32.50;;;20.30;99.90;;;;;;5066626;28;20053;-49
2021/09/15 09:59:27;;;;;;;39.90;36.15;;;20.40;99.90;;;;;;5066410;28;20687;-47
2021/09/15 10:01:59;;;;;;;41.85;37.88;;;20.40;99.90;;;;;;5064507;28;20600;-46
2021/09/15 10:04:28;;;;;;;45.53;41.22;;;20.50;99.90;;;;;;5056592;28;20588;-46
2021/09/15 10:06:55;;;;;;;40.08;36.17;;;20.50;99.90;;;;;;5059222;28;20187;-46
2021/09/15 10:09:23;;;;;;;43.95;39.60;;;20.50;99.90;;;;;;5058648;28;20540;-44
2021/09/15 10:11:49;;;;;;;44.50;39.85;;;20.60;99.90;;;;;;5049135;28;20087;-42
2021/09/15 10:14:21;;;;;;;38.95;34.72;;;20.50;99.90;;;;;;5049491;28;20066;-45
2021/09/15 10:16:52;;;;;;;;;;;20.40;99.90;;;;;;5052535;28;20044;-46
2021/09/15 10:19:31;;;;;;;39.88;35.97;;;20.40;99.90;;;;;;5060117;28;20039;-45
2021/09/15 10:22:02;;;;;;;44.28;40.10;;;20.40;99.90;;;;;;5058335;28;20056;-43
2021/09/15 10:24:58;;;;;;;43.25;38.80;;;20.40;99.90;;;;;;5055381;28;20049;-43
2021/09/15 10:27:30;;;;;;;37.67;33.92;;;20.30;99.90;;;;;;5058773;28;20118;-45
2021/09/15 10:30:12;;;;;;;41.47;37.22;;;20.30;99.90;;;;;;5052051;28;20136;-45
2021/09/15 10:32:50;;;;;;;40.50;36.28;;;20.40;99.90;;;;;;5056766;28;20045;-46
2021/09/15 10:35:47;;;;;;;37.58;33.97;;;20.50;99.90;;;;;;5055939;28;20048;-44
2021/09/15 10:38:14;;;;;;;36.30;32.85;;;20.70;99.90;;;;;;5053844;28;20414;-44
2021/09/15 10:40:43;;;;;;;46.85;42.38;;;20.90;99.90;;;;;;5086145;28;20061;-44
2021/09/15 10:43:39;;;;;;;58.58;52.83;;;21.10;99.90;;;;;;5053477;28;20055;-43
2021/09/15 10:46:20;;;;;;;36.83;33.42;;;21.30;99.90;;;;;;5053575;28;20455;-42
2021/09/15 10:49:21;;;;;;;38.33;34.53;;;21.50;99.90;;;;;;5059189;28;20047;-43
2021/09/15 10:52:10;;;;;;;38.13;34.33;;;21.50;99.90;;;;;;5057559;28;20307;-48
2021/09/15 10:54:47;;;;;;;36.67;33.33;;;21.70;99.90;;;;;;5017550;28;20176;-42
2021/09/15 10:57:17;;;;;;;34.65;31.20;;;21.70;99.90;;;;;;5016274;28;20084;-45
2021/09/15 10:59:48;;;;;;;46.83;42.22;;;21.60;99.90;;;;;;5020444;28;20156;-45
2021/09/15 11:02:46;;;;;;;38.60;34.95;;;21.60;99.90;;;;;;5029173;28;20053;-46
2021/09/15 11:05:26;;;;;;;41.20;37.35;;;21.50;99.90;;;;;;4963641;28;20081;-45
2021/09/15 11:07:57;;;;;;;41.42;37.53;;;21.30;99.90;;;;;;4966765;28;20550;-44
2021/09/15 11:10:34;;;;;;;37.60;34.20;;;21.30;99.90;;;;;;4965959;28;20133;-44
2021/09/15 11:13:17;;;;;;;40.63;36.63;;;21.30;99.90;;;;;;4965507;28;20163;-43
2021/09/15 11:15:49;;;;;;;36.17;32.80;;;21.20;99.90;;;;;;4949693;28;20058;-43
2021/09/15 11:18:27;;;;;;;37.22;33.53;;;21.10;99.90;;;;;;4965135;28;20062;-45
2021/09/15 11:20:53;;;;;;;35.17;31.98;;;21.20;99.90;;;;;;4965269;28;20110;-44
2021/09/15 11:23:20;;;;;;;34.05;30.95;;;21.30;99.90;;;;;;4964831;28;20069;-45
2021/09/15 11:25:49;;;;;;;37.47;33.97;;;21.50;99.90;;;;;;4949768;28;20057;-44
2021/09/15 11:28:19;;;;;;;35.22;31.88;;;21.60;99.90;;;;;;4965645;28;20055;-43
2021/09/15 11:30:50;;;;;;;34.50;31.20;;;21.60;99.90;;;;;;4965866;28;20058;-45
2021/09/15 11:33:37;;;;;;;34.47;31.13;;;21.60;99.90;;;;;;4968307;28;20555;-46
2021/09/15 11:36:08;;;;;;;34.80;31.55;;;21.60;99.90;;;;;;4984041;28;20545;-45
2021/09/15 11:38:37;;;;;;;36.83;33.33;;;21.60;99.90;;;;;;4983017;28;20061;-43
2021/09/15 11:41:10;;;;;;;35.78;32.47;;;21.60;99.90;;;;;;5003712;28;20041;-45
2021/09/15 11:43:45;;;;;;;37.25;33.70;;;21.50;99.90;;;;;;5061033;28;20048;-46
2021/09/15 11:46:12;;;;;;;36.75;33.30;;;21.40;99.90;;;;;;5064135;28;20052;-45
2021/09/15 11:48:41;;;;;;;39.50;35.42;;;21.30;99.90;;;;;;5055465;28;20184;-45
2021/09/15 11:51:19;;;;;;;49.95;43.88;;;21.30;99.90;;;;;;5058581;28;20057;-45
2021/09/15 11:53:55;;;;;;;46.60;41.13;;;21.00;99.90;;;;;;5059905;28;20064;-46
2021/09/15 11:56:35;;;;;;;47.72;42.25;;;21.10;99.90;;;;;;5059580;28;20049;-46
2021/09/15 11:59:03;;;;;;;48.65;43.30;;;21.10;99.90;;;;;;5066055;28;20122;-46
2021/09/15 12:01:33;;;;;;;45.85;40.88;;;21.30;99.90;;;;;;5057542;28;20048;-48
2021/09/15 12:04:04;;;;;;;48.72;41.58;;;21.70;99.90;;;;;;5062850;28;20063;-49
2021/09/15 12:06:30;;;;;;;45.28;40.35;;;21.90;99.90;;;;;;5060764;28;20053;-50
2021/09/15 12:08:58;;;;;;;46.45;41.63;;;22.00;99.90;;;;;;5088408;28;20057;-46
2021/09/15 12:11:39;;;;;;;45.47;38.28;;;22.20;99.90;;;;;;5066760;28;20050;-48
2021/09/15 12:14:10;;;;;;;41.97;37.53;;;22.60;99.90;;;;;;5068566;28;20052;-48
2021/09/15 12:16:41;;;;;;;41.22;36.78;;;22.90;99.90;;;;;;5080094;28;20140;-49
2021/09/15 12:19:17;;;;;;;40.60;36.40;;;22.70;99.90;;;;;;5068749;28;20049;-47
2021/09/15 12:21:50;;;;;;;37.33;33.42;;;22.60;99.90;;;;;;5064883;28;20060;-49
2021/09/15 12:24:18;;;;;;;36.05;31.95;;;22.40;99.90;;;;;;5062922;28;20527;-50
2021/09/15 12:26:47;;;;;;;31.55;28.23;;;22.30;99.90;;;;;;5057670;28;20055;-51
2021/09/15 12:29:16;;;;;;;28.83;25.83;;;22.30;99.90;;;;;;5061450;28;20101;-47
2021/09/15 12:31:58;;;;;;;28.60;25.63;;;22.40;99.90;;;;;;5095759;28;20055;-49
2021/09/15 12:34:42;;;;;;;26.67;23.77;;;22.60;99.90;;;;;;5062429;28;20056;-49
2021/09/15 12:37:15;;;;;;;27.65;24.77;;;22.80;99.90;;;;;;5064384;28;20064;-48
2021/09/15 12:39:56;;;;;;;25.63;23.02;;;23.10;99.90;;;;;;5055999;28;20052;-47
2021/09/15 12:42:24;;;;;;;26.08;22.95;;;23.20;99.90;;;;;;5053692;28;20060;-47
2021/09/15 12:45:04;;;;;;;25.88;23.17;;;23.00;99.90;;;;;;5045378;28;20057;-48
2021/09/15 12:47:35;;;;;;;26.35;22.98;;;23.00;99.90;;;;;;5064256;28;20056;-52
2021/09/15 12:50:12;;;;;;;26.42;23.52;;;22.90;99.90;;;;;;5061840;28;20059;-49
2021/09/15 12:52:40;;;;;;;26.13;21.08;;;22.70;99.90;;;;;;5062097;28;20071;-50
2021/09/15 12:55:08;;;;;;;24.23;21.42;;;22.70;99.90;;;;;;5059747;28;20057;-47
2021/09/15 12:57:34;;;;;;;23.75;21.15;;;22.60;99.90;;;;;;5066139;28;20060;-47